createdAt,value
2023-12-31T00:00:30.990Z,110.13
2023-12-31T00:05:34.700Z,109.70
2023-12-31T00:10:37.169Z,121.55
2023-12-31T00:15:39.520Z,128.05
2023-12-31T00:20:41.668Z,114.45
2023-12-31T00:25:44.017Z,111.82
2023-12-31T00:30:46.337Z,113.25
2023-12-31T00:35:49.299Z,99.22
2023-12-31T00:40:51.631Z,99.65
2023-12-31T00:45:53.904Z,99.55
2023-12-31T00:50:56.163Z,97.43
2023-12-31T00:55:58.326Z,88.72
2023-12-31T01:01:00.592Z,76.60
2023-12-31T01:06:09.285Z,67.10
2023-12-31T01:11:11.564Z,70.30
2023-12-31T01:16:13.846Z,55.05
2023-12-31T01:21:16.146Z,55.17
2023-12-31T01:26:18.399Z,55.60
2023-12-31T01:31:21.461Z,61.13
2023-12-31T01:36:26.598Z,57.03
2023-12-31T01:41:30.175Z,56.83
2023-12-31T01:46:33.626Z,51.10
2023-12-31T01:51:36.449Z,52.55
2023-12-31T01:56:41.011Z,54.95
2023-12-31T02:01:43.553Z,66.15
2023-12-31T02:06:45.810Z,77.00
2023-12-31T02:11:48.043Z,76.25
2023-12-31T02:16:50.696Z,73.13
2023-12-31T02:21:53.410Z,64.18
2023-12-31T02:26:55.738Z,53.22
2023-12-31T02:31:57.950Z,53.45
2023-12-31T02:37:00.190Z,46.90
2023-12-31T02:42:02.405Z,45.08
2023-12-31T02:47:04.925Z,47.65
2023-12-31T02:52:07.328Z,42.58
2023-12-31T02:57:09.637Z,40.75
2023-12-31T03:02:12.104Z,45.30
2023-12-31T03:07:14.795Z,52.35
2023-12-31T03:12:17.062Z,47.08
2023-12-31T03:17:19.293Z,54.80
2023-12-31T03:22:30.567Z,57.42
2023-12-31T03:27:40.803Z,61.67
2023-12-31T03:32:43.001Z,63.45
2023-12-31T03:37:48.590Z,64.63
2023-12-31T03:42:51.358Z,79.32
2023-12-31T03:47:53.602Z,66.15
2023-12-31T03:52:55.875Z,55.58
2023-12-31T03:57:58.076Z,45.38
2023-12-31T04:03:00.433Z,46.78
2023-12-31T04:08:02.729Z,43.13
2023-12-31T04:13:05.440Z,42.30
2023-12-31T04:18:07.911Z,43.72
2023-12-31T04:23:10.269Z,41.28
2023-12-31T04:28:12.600Z,42.08
2023-12-31T04:33:15.117Z,47.63
2023-12-31T04:38:17.388Z,45.70
2023-12-31T04:43:19.709Z,47.60
2023-12-31T04:48:22.074Z,53.58
2023-12-31T04:53:24.351Z,43.38
2023-12-31T04:58:26.555Z,45.38
2023-12-31T05:03:28.829Z,46.08
2023-12-31T05:08:31.114Z,45.15
2023-12-31T05:13:34.081Z,46.17
2023-12-31T05:18:36.470Z,44.53
2023-12-31T05:23:38.771Z,44.83
2023-12-31T05:28:41.547Z,42.65
2023-12-31T05:33:44.362Z,52.05
2023-12-31T05:38:46.671Z,46.67
2023-12-31T05:43:49.205Z,39.78
2023-12-31T05:48:51.630Z,44.05
2023-12-31T05:53:53.933Z,42.63
2023-12-31T05:58:56.433Z,45.70
2023-12-31T06:03:58.637Z,45.33
2023-12-31T06:09:00.904Z,38.85
2023-12-31T06:14:04.417Z,43.10
2023-12-31T06:19:06.633Z,43.20
2023-12-31T06:24:08.921Z,48.67
2023-12-31T06:29:11.249Z,48.72
2023-12-31T06:34:13.653Z,45.75
2023-12-31T06:39:15.859Z,49.88
2023-12-31T06:44:18.133Z,47.22
2023-12-31T06:49:20.378Z,43.00
2023-12-31T06:54:22.643Z,47.42
2023-12-31T06:59:24.974Z,57.10
2023-12-31T07:04:27.876Z,64.90
2023-12-31T07:09:30.113Z,64.35
2023-12-31T07:14:32.344Z,57.03
2023-12-31T07:19:34.636Z,56.08
2023-12-31T07:24:37.681Z,66.35
2023-12-31T07:29:39.874Z,64.03
2023-12-31T07:34:42.642Z,73.65
2023-12-31T07:39:44.945Z,76.88
2023-12-31T07:44:47.186Z,81.70
2023-12-31T07:49:49.511Z,72.15
2023-12-31T07:54:51.807Z,76.60
2023-12-31T07:59:54.098Z,79.25
2023-12-31T08:04:56.395Z,82.53
2023-12-31T08:09:58.666Z,74.32
2023-12-31T08:15:00.982Z,92.30
2023-12-31T08:20:03.854Z,97.85
2023-12-31T08:25:06.488Z,111.47
2023-12-31T08:30:09.808Z,86.53
2023-12-31T08:35:12.223Z,80.45
2023-12-31T08:40:15.822Z,80.88
2023-12-31T08:45:18.153Z,83.53
2023-12-31T08:50:20.582Z,83.05
2023-12-31T08:55:22.940Z,87.00
2023-12-31T09:00:25.224Z,82.82
2023-12-31T09:05:27.668Z,81.63
2023-12-31T09:10:30.345Z,85.57
2023-12-31T09:15:32.712Z,74.10
2023-12-31T09:20:35.436Z,72.35
2023-12-31T09:25:37.678Z,70.63
2023-12-31T09:30:39.959Z,63.92
2023-12-31T09:35:42.351Z,67.00
2023-12-31T09:40:45.332Z,65.43
2023-12-31T09:45:50.075Z,65.68
2023-12-31T09:50:52.779Z,83.15
2023-12-31T09:55:58.412Z,95.70
2023-12-31T10:01:00.727Z,96.40
2023-12-31T10:06:04.096Z,104.43
2023-12-31T10:11:07.663Z,117.22
2023-12-31T10:16:14.144Z,125.57
2023-12-31T10:21:16.470Z,117.82
2023-12-31T10:26:18.776Z,114.85
2023-12-31T10:31:21.055Z,102.47
2023-12-31T10:36:27.239Z,101.97
2023-12-31T10:41:30.463Z,100.90
2023-12-31T10:46:36.510Z,105.95
2023-12-31T10:51:43.544Z,100.38
2023-12-31T10:56:49.262Z,89.70
2023-12-31T11:01:51.857Z,98.45
2023-12-31T11:06:56.479Z,95.75
2023-12-31T11:11:59.194Z,98.50
2023-12-31T11:17:27.630Z,106.45
2023-12-31T11:22:47.722Z,103.80
2023-12-31T11:27:55.145Z,101.70
2023-12-31T11:32:57.378Z,111.40
2023-12-31T11:37:59.769Z,101.47
2023-12-31T11:43:11.144Z,103.18
2023-12-31T11:48:27.000Z,95.45
2023-12-31T11:53:31.674Z,89.03
2023-12-31T11:58:35.062Z,99.50
2023-12-31T12:03:37.414Z,86.55
2023-12-31T12:08:41.017Z,97.78
2023-12-31T12:13:45.675Z,90.40
2023-12-31T12:18:48.088Z,83.00
2023-12-31T12:23:50.414Z,75.15
2023-12-31T12:28:56.648Z,50.30
2023-12-31T12:33:59.112Z,45.80
2023-12-31T12:39:04.407Z,85.82
2023-12-31T12:44:09.181Z,64.57
2023-12-31T12:49:13.306Z,98.32
2023-12-31T12:54:16.564Z,57.75
2023-12-31T12:59:19.026Z,101.10
2023-12-31T13:04:21.945Z,107.13
2023-12-31T13:09:24.447Z,70.57
2023-12-31T13:14:27.486Z,62.75
2023-12-31T13:19:29.729Z,45.10
2023-12-31T13:24:31.984Z,46.35
2023-12-31T13:29:34.240Z,47.67
2023-12-31T13:34:36.926Z,49.30
2023-12-31T13:39:39.195Z,49.00
2023-12-31T13:44:46.289Z,46.42
2023-12-31T13:49:48.713Z,49.45
2023-12-31T13:54:51.439Z,51.03
2023-12-31T13:59:54.510Z,56.28
2023-12-31T14:04:57.849Z,59.13
2023-12-31T14:10:00.112Z,56.75
2023-12-31T14:15:02.412Z,61.13
2023-12-31T14:20:07.254Z,56.47
2023-12-31T14:25:10.638Z,56.10
2023-12-31T14:30:13.643Z,58.70
2023-12-31T14:35:16.003Z,58.05
2023-12-31T14:40:18.334Z,54.15
2023-12-31T14:45:20.579Z,55.47
2023-12-31T14:50:23.057Z,59.47
2023-12-31T14:55:25.448Z,71.20
2023-12-31T15:00:27.658Z,72.93
2023-12-31T15:05:30.750Z,71.95
2023-12-31T15:10:33.167Z,72.47
2023-12-31T15:15:37.039Z,80.68
2023-12-31T15:20:42.120Z,82.05
2023-12-31T15:25:44.904Z,96.05
2023-12-31T15:30:47.120Z,93.45
2023-12-31T15:35:51.988Z,93.05
2023-12-31T15:40:54.378Z,80.57
2023-12-31T15:45:56.831Z,70.88
2023-12-31T15:50:59.211Z,63.17
2023-12-31T15:56:01.699Z,61.17
2023-12-31T16:01:04.590Z,62.72
2023-12-31T16:06:08.614Z,67.30
2023-12-31T16:11:12.270Z,73.10
2023-12-31T16:16:14.546Z,79.82
2023-12-31T16:21:16.885Z,75.18
2023-12-31T16:26:21.488Z,74.43
2023-12-31T16:31:23.918Z,94.38
2023-12-31T16:36:30.239Z,93.00
2023-12-31T16:41:36.565Z,101.53
2023-12-31T16:46:39.021Z,92.10
2023-12-31T16:51:43.451Z,96.25
2023-12-31T16:56:45.948Z,89.53
2023-12-31T17:01:48.393Z,84.25
2023-12-31T17:06:50.941Z,83.70
2023-12-31T17:11:53.214Z,101.57
2023-12-31T17:16:55.781Z,105.93
2023-12-31T17:21:58.090Z,99.40
2023-12-31T17:27:00.792Z,94.53
2023-12-31T17:32:03.988Z,123.95
2023-12-31T17:37:10.752Z,102.63
2023-12-31T17:42:14.843Z,120.25
2023-12-31T17:47:17.056Z,94.10
2023-12-31T17:52:19.596Z,90.53
2023-12-31T17:57:21.782Z,76.80
2023-12-31T18:02:24.965Z,84.47
2023-12-31T18:07:27.263Z,98.72
2023-12-31T18:12:29.510Z,108.68
2023-12-31T18:17:32.127Z,116.03
2023-12-31T18:22:35.039Z,175.32
2023-12-31T18:27:38.441Z,151.70
2023-12-31T18:32:40.848Z,161.02
2023-12-31T18:37:43.277Z,154.93
2023-12-31T18:42:45.602Z,183.93
2023-12-31T18:47:48.180Z,177.50
2023-12-31T18:52:50.595Z,202.85
2023-12-31T18:57:52.821Z,205.07
2023-12-31T19:02:55.167Z,156.27
2023-12-31T19:07:57.387Z,139.32
2023-12-31T19:12:59.668Z,141.73
2023-12-31T19:18:02.565Z,160.18
2023-12-31T19:23:05.427Z,157.52
2023-12-31T19:28:07.884Z,152.15
2023-12-31T19:33:10.644Z,159.05
2023-12-31T19:38:13.298Z,157.98
2023-12-31T19:43:22.073Z,156.20
2023-12-31T19:48:32.666Z,146.63
2023-12-31T19:53:37.917Z,165.60
2023-12-31T19:58:40.649Z,150.82
2023-12-31T20:03:46.070Z,170.15
2023-12-31T20:08:48.407Z,183.98
2023-12-31T20:13:50.862Z,202.05
2023-12-31T20:18:53.366Z,200.80
2023-12-31T20:23:57.493Z,242.45
2023-12-31T20:28:59.960Z,210.07
2023-12-31T20:34:03.787Z,211.15
2023-12-31T20:39:06.600Z,227.57
2023-12-31T20:44:08.857Z,243.82
2023-12-31T20:49:11.194Z,217.75
2023-12-31T20:54:14.374Z,230.63
2023-12-31T20:59:16.530Z,225.40
2023-12-31T21:04:18.733Z,220.05
2023-12-31T21:09:21.107Z,202.88
2023-12-31T21:14:23.428Z,200.15
2023-12-31T21:19:25.800Z,225.65
2023-12-31T21:24:28.150Z,176.85
2023-12-31T21:29:30.759Z,146.10
2023-12-31T21:34:33.929Z,132.13
2023-12-31T21:39:36.211Z,154.63
2023-12-31T21:44:40.582Z,171.57
2023-12-31T21:49:42.924Z,161.82
2023-12-31T21:54:45.199Z,217.15
2023-12-31T21:59:47.456Z,195.10
2023-12-31T22:04:49.902Z,173.88
2023-12-31T22:09:54.498Z,172.00
2023-12-31T22:14:56.786Z,109.68
2023-12-31T22:19:59.247Z,84.03
2023-12-31T22:25:01.570Z,112.22
2023-12-31T22:30:04.428Z,120.45
2023-12-31T22:35:06.964Z,100.65
2023-12-31T22:40:10.750Z,109.70
2023-12-31T22:45:13.077Z,119.18
2023-12-31T22:50:15.381Z,123.82
2023-12-31T22:55:17.771Z,127.45
2023-12-31T23:00:20.697Z,130.55
2023-12-31T23:05:23.047Z,120.22
2023-12-31T23:10:25.363Z,116.53
2023-12-31T23:15:27.671Z,114.95
2023-12-31T23:20:30.023Z,91.70
2023-12-31T23:25:32.226Z,97.15
2023-12-31T23:30:34.572Z,75.28
2023-12-31T23:35:36.959Z,102.10
2023-12-31T23:40:39.177Z,92.05
2023-12-31T23:45:41.538Z,89.15
2023-12-31T23:50:43.740Z,77.95
2023-12-31T23:55:46.220Z,73.07
